sensor_id;sensor_type;location;lat;lon;timestamp;P1;durP1;ratioP1;P2;durP2;ratioP2
4563;SDS011;2294;51.818;8.484;2022-11-11T00:01:45;4.37;;;3.17;;
4563;SDS011;2294;51.818;8.484;2022-11-11T00:04:11;8.03;;;2.50;;
4563;SDS011;2294;51.818;8.484;2022-11-11T00:06:38;4.57;;;2.70;;
4563;SDS011;2294;51.818;8.484;2022-11-11T00:09:07;2.83;;;2.23;;
4563;SDS011;2294;51.818;8.484;2022-11-11T00:11:35;4.17;;;2.60;;
4563;SDS011;2294;51.818;8.484;2022-11-11T00:14:03;7.80;;;2.20;;
4563;SDS011;2294;51.818;8.484;2022-11-11T00:16:30;5.50;;;2.87;;
4563;SDS011;2294;51.818;8.484;2022-11-11T00:19:16;3.40;;;1.90;;
4563;SDS011;2294;51.818;8.484;2022-11-11T00:22:01;4.83;;;2.23;;
4563;SDS011;2294;51.818;8.484;2022-11-11T00:24:47;6.00;;;2.80;;
4563;SDS011;2294;51.818;8.484;2022-11-11T00:27:32;5.50;;;2.37;;
4563;SDS011;2294;51.818;8.484;2022-11-11T00:29:59;3.10;;;2.60;;
4563;SDS011;2294;51.818;8.484;2022-11-11T00:32:26;9.00;;;2.50;;
4563;SDS011;2294;51.818;8.484;2022-11-11T00:34:55;8.80;;;2.80;;
4563;SDS011;2294;51.818;8.484;2022-11-11T00:37:41;6.47;;;2.50;;
4563;SDS011;2294;51.818;8.484;2022-11-11T00:40:10;3.17;;;2.83;;
4563;SDS011;2294;51.818;8.484;2022-11-11T00:42:38;6.37;;;2.87;;
4563;SDS011;2294;51.818;8.484;2022-11-11T00:45:05;7.20;;;3.10;;
4563;SDS011;2294;51.818;8.484;2022-11-11T00:47:33;4.13;;;2.40;;
4563;SDS011;2294;51.818;8.484;2022-11-11T00:50:18;8.00;;;2.50;;
4563;SDS011;2294;51.818;8.484;2022-11-11T00:53:03;4.63;;;2.40;;
4563;SDS011;2294;51.818;8.484;2022-11-11T00:55:35;3.80;;;2.63;;
4563;SDS011;2294;51.818;8.484;2022-11-11T00:58:02;4.97;;;2.97;;
4563;SDS011;2294;51.818;8.484;2022-11-11T01:00:28;3.93;;;2.60;;
4563;SDS011;2294;51.818;8.484;2022-11-11T01:02:56;4.30;;;3.07;;
4563;SDS011;2294;51.818;8.484;2022-11-11T01:05:23;4.43;;;2.97;;
4563;SDS011;2294;51.818;8.484;2022-11-11T01:07:50;6.50;;;2.73;;
4563;SDS011;2294;51.818;8.484;2022-11-11T01:10:17;9.23;;;2.50;;
4563;SDS011;2294;51.818;8.484;2022-11-11T01:13:00;5.63;;;3.60;;
4563;SDS011;2294;51.818;8.484;2022-11-11T01:15:37;4.33;;;2.73;;
4563;SDS011;2294;51.818;8.484;2022-11-11T01:18:04;7.70;;;3.30;;
4563;SDS011;2294;51.818;8.484;2022-11-11T01:20:31;17.60;;;4.00;;
4563;SDS011;2294;51.818;8.484;2022-11-11T01:23:00;5.00;;;2.83;;
4563;SDS011;2294;51.818;8.484;2022-11-11T01:25:27;6.13;;;2.63;;
4563;SDS011;2294;51.818;8.484;2022-11-11T01:27:54;10.13;;;2.50;;
4563;SDS011;2294;51.818;8.484;2022-11-11T01:30:22;6.30;;;3.03;;
4563;SDS011;2294;51.818;8.484;2022-11-11T01:32:49;8.67;;;3.37;;
4563;SDS011;2294;51.818;8.484;2022-11-11T01:35:16;8.07;;;3.10;;
4563;SDS011;2294;51.818;8.484;2022-11-11T01:37:43;4.20;;;2.23;;
4563;SDS011;2294;51.818;8.484;2022-11-11T01:40:10;4.33;;;2.70;;
4563;SDS011;2294;51.818;8.484;2022-11-11T01:42:47;3.03;;;2.50;;
4563;SDS011;2294;51.818;8.484;2022-11-11T01:48:17;10.40;;;2.80;;
4563;SDS011;2294;51.818;8.484;2022-11-11T01:51:05;7.67;;;3.13;;
4563;SDS011;2294;51.818;8.484;2022-11-11T01:53:37;10.90;;;3.00;;
4563;SDS011;2294;51.818;8.484;2022-11-11T01:56:05;7.73;;;3.70;;
4563;SDS011;2294;51.818;8.484;2022-11-11T01:58:33;4.63;;;2.73;;
4563;SDS011;2294;51.818;8.484;2022-11-11T02:01:02;6.73;;;3.23;;
4563;SDS011;2294;51.818;8.484;2022-11-11T02:03:31;5.57;;;2.50;;
4563;SDS011;2294;51.818;8.484;2022-11-11T02:06:04;5.10;;;2.70;;
4563;SDS011;2294;51.818;8.484;2022-11-11T02:08:31;6.40;;;2.17;;
4563;SDS011;2294;51.818;8.484;2022-11-11T02:11:01;8.33;;;2.80;;
4563;SDS011;2294;51.818;8.484;2022-11-11T02:13:29;9.00;;;3.50;;
4563;SDS011;2294;51.818;8.484;2022-11-11T02:16:15;4.13;;;3.00;;
4563;SDS011;2294;51.818;8.484;2022-11-11T02:18:42;4.00;;;2.60;;
4563;SDS011;2294;51.818;8.484;2022-11-11T02:21:10;3.10;;;2.27;;
4563;SDS011;2294;51.818;8.484;2022-11-11T02:23:42;6.60;;;2.83;;
4563;SDS011;2294;51.818;8.484;2022-11-11T02:26:15;5.40;;;3.00;;
4563;SDS011;2294;51.818;8.484;2022-11-11T02:28:42;9.33;;;2.97;;
4563;SDS011;2294;51.818;8.484;2022-11-11T02:31:10;4.03;;;2.23;;
4563;SDS011;2294;51.818;8.484;2022-11-11T02:33:37;4.33;;;2.90;;
4563;SDS011;2294;51.818;8.484;2022-11-11T02:36:04;3.50;;;2.53;;
4563;SDS011;2294;51.818;8.484;2022-11-11T02:38:35;6.83;;;3.40;;
4563;SDS011;2294;51.818;8.484;2022-11-11T02:41:02;7.73;;;3.87;;
4563;SDS011;2294;51.818;8.484;2022-11-11T02:43:48;6.27;;;3.03;;
4563;SDS011;2294;51.818;8.484;2022-11-11T02:46:14;5.63;;;3.03;;
4563;SDS011;2294;51.818;8.484;2022-11-11T02:48:42;4.43;;;3.60;;
4563;SDS011;2294;51.818;8.484;2022-11-11T02:51:08;6.10;;;2.83;;
4563;SDS011;2294;51.818;8.484;2022-11-11T02:53:35;7.90;;;4.40;;
4563;SDS011;2294;51.818;8.484;2022-11-11T02:56:02;3.13;;;2.63;;
4563;SDS011;2294;51.818;8.484;2022-11-11T02:58:30;13.30;;;3.30;;
4563;SDS011;2294;51.818;8.484;2022-11-11T03:00:58;4.53;;;3.10;;
4563;SDS011;2294;51.818;8.484;2022-11-11T03:03:25;5.60;;;2.60;;
4563;SDS011;2294;51.818;8.484;2022-11-11T03:05:52;5.03;;;3.10;;
4563;SDS011;2294;51.818;8.484;2022-11-11T03:08:19;4.53;;;2.90;;
4563;SDS011;2294;51.818;8.484;2022-11-11T03:10:46;5.60;;;3.13;;
4563;SDS011;2294;51.818;8.484;2022-11-11T03:13:13;4.77;;;3.20;;
4563;SDS011;2294;51.818;8.484;2022-11-11T03:15:40;8.20;;;3.40;;
4563;SDS011;2294;51.818;8.484;2022-11-11T03:18:09;5.00;;;2.90;;
4563;SDS011;2294;51.818;8.484;2022-11-11T03:20:35;7.23;;;2.63;;
4563;SDS011;2294;51.818;8.484;2022-11-11T03:23:19;6.23;;;3.27;;
4563;SDS011;2294;51.818;8.484;2022-11-11T03:25:46;6.37;;;3.20;;
4563;SDS011;2294;51.818;8.484;2022-11-11T03:28:14;4.10;;;2.87;;
4563;SDS011;2294;51.818;8.484;2022-11-11T03:30:43;4.50;;;2.83;;
4563;SDS011;2294;51.818;8.484;2022-11-11T03:33:12;5.20;;;3.37;;
4563;SDS011;2294;51.818;8.484;2022-11-11T03:35:40;5.87;;;2.70;;
4563;SDS011;2294;51.818;8.484;2022-11-11T03:38:09;5.30;;;2.67;;
4563;SDS011;2294;51.818;8.484;2022-11-11T03:40:48;35.17;;;3.37;;
4563;SDS011;2294;51.818;8.484;2022-11-11T03:43:17;2.90;;;2.50;;
4563;SDS011;2294;51.818;8.484;2022-11-11T03:45:45;4.77;;;2.87;;
4563;SDS011;2294;51.818;8.484;2022-11-11T03:48:14;3.60;;;2.30;;
4563;SDS011;2294;51.818;8.484;2022-11-11T03:50:41;2.37;;;2.10;;
4563;SDS011;2294;51.818;8.484;2022-11-11T03:53:08;4.20;;;2.50;;
4563;SDS011;2294;51.818;8.484;2022-11-11T03:55:35;3.97;;;2.57;;
4563;SDS011;2294;51.818;8.484;2022-11-11T03:58:02;3.30;;;2.30;;
4563;SDS011;2294;51.818;8.484;2022-11-11T04:00:28;4.53;;;2.60;;
4563;SDS011;2294;51.818;8.484;2022-11-11T04:03:02;2.73;;;2.43;;
4563;SDS011;2294;51.818;8.484;2022-11-11T04:05:49;5.87;;;2.60;;
4563;SDS011;2294;51.818;8.484;2022-11-11T04:08:42;3.43;;;2.40;;
4563;SDS011;2294;51.818;8.484;2022-11-11T04:11:27;6.00;;;3.70;;
4563;SDS011;2294;51.818;8.484;2022-11-11T04:13:57;5.40;;;3.30;;
4563;SDS011;2294;51.818;8.484;2022-11-11T04:16:44;5.53;;;2.90;;
4563;SDS011;2294;51.818;8.484;2022-11-11T04:19:11;5.60;;;2.83;;
4563;SDS011;2294;51.818;8.484;2022-11-11T04:21:57;3.93;;;2.10;;
4563;SDS011;2294;51.818;8.484;2022-11-11T04:24:24;7.17;;;3.33;;
4563;SDS011;2294;51.818;8.484;2022-11-11T04:27:09;3.17;;;2.37;;
4563;SDS011;2294;51.818;8.484;2022-11-11T04:29:38;4.67;;;2.83;;
4563;SDS011;2294;51.818;8.484;2022-11-11T04:32:05;5.33;;;3.10;;
4563;SDS011;2294;51.818;8.484;2022-11-11T04:34:52;4.63;;;2.93;;
4563;SDS011;2294;51.818;8.484;2022-11-11T04:37:22;5.40;;;2.60;;
4563;SDS011;2294;51.818;8.484;2022-11-11T04:39:50;8.57;;;2.47;;
4563;SDS011;2294;51.818;8.484;2022-11-11T04:42:35;3.60;;;2.50;;
4563;SDS011;2294;51.818;8.484;2022-11-11T04:45:03;4.60;;;2.40;;
4563;SDS011;2294;51.818;8.484;2022-11-11T04:47:52;3.57;;;2.43;;
4563;SDS011;2294;51.818;8.484;2022-11-11T04:50:19;4.67;;;2.50;;
4563;SDS011;2294;51.818;8.484;2022-11-11T04:52:48;3.30;;;2.90;;
4563;SDS011;2294;51.818;8.484;2022-11-11T04:55:15;8.47;;;3.27;;
4563;SDS011;2294;51.818;8.484;2022-11-11T04:57:56;7.30;;;3.23;;
4563;SDS011;2294;51.818;8.484;2022-11-11T05:00:22;5.07;;;2.20;;
4563;SDS011;2294;51.818;8.484;2022-11-11T05:02:52;9.27;;;2.43;;
4563;SDS011;2294;51.818;8.484;2022-11-11T05:05:37;7.03;;;3.27;;
4563;SDS011;2294;51.818;8.484;2022-11-11T05:08:19;2.77;;;2.47;;
4563;SDS011;2294;51.818;8.484;2022-11-11T05:11:09;4.40;;;3.00;;
4563;SDS011;2294;51.818;8.484;2022-11-11T05:13:36;7.40;;;2.73;;
4563;SDS011;2294;51.818;8.484;2022-11-11T05:16:21;5.77;;;2.50;;
4563;SDS011;2294;51.818;8.484;2022-11-11T05:19:08;6.30;;;2.30;;
4563;SDS011;2294;51.818;8.484;2022-11-11T05:21:54;11.40;;;3.00;;
4563;SDS011;2294;51.818;8.484;2022-11-11T05:24:23;4.20;;;2.13;;
4563;SDS011;2294;51.818;8.484;2022-11-11T05:27:08;3.17;;;1.97;;
4563;SDS011;2294;51.818;8.484;2022-11-11T05:29:35;3.93;;;2.37;;
4563;SDS011;2294;51.818;8.484;2022-11-11T05:32:02;5.90;;;2.23;;
4563;SDS011;2294;51.818;8.484;2022-11-11T05:34:29;3.37;;;2.30;;
4563;SDS011;2294;51.818;8.484;2022-11-11T05:36:56;8.70;;;2.40;;
4563;SDS011;2294;51.818;8.484;2022-11-11T05:39:24;4.00;;;2.30;;
4563;SDS011;2294;51.818;8.484;2022-11-11T05:41:51;6.70;;;2.70;;
4563;SDS011;2294;51.818;8.484;2022-11-11T05:44:18;2.47;;;2.10;;
4563;SDS011;2294;51.818;8.484;2022-11-11T05:46:45;3.23;;;2.63;;
4563;SDS011;2294;51.818;8.484;2022-11-11T05:49:12;3.97;;;2.90;;
4563;SDS011;2294;51.818;8.484;2022-11-11T05:51:42;3.40;;;2.27;;
4563;SDS011;2294;51.818;8.484;2022-11-11T05:54:09;4.37;;;1.80;;
4563;SDS011;2294;51.818;8.484;2022-11-11T05:56:38;5.57;;;2.00;;
4563;SDS011;2294;51.818;8.484;2022-11-11T05:59:05;4.00;;;2.20;;
4563;SDS011;2294;51.818;8.484;2022-11-11T06:01:33;9.50;;;2.20;;
4563;SDS011;2294;51.818;8.484;2022-11-11T06:04:00;3.20;;;2.10;;
4563;SDS011;2294;51.818;8.484;2022-11-11T06:06:27;6.33;;;2.33;;
4563;SDS011;2294;51.818;8.484;2022-11-11T06:08:54;4.10;;;2.20;;
4563;SDS011;2294;51.818;8.484;2022-11-11T06:11:21;7.23;;;2.40;;
4563;SDS011;2294;51.818;8.484;2022-11-11T06:13:50;7.80;;;3.00;;
4563;SDS011;2294;51.818;8.484;2022-11-11T06:16:17;9.33;;;2.30;;
4563;SDS011;2294;51.818;8.484;2022-11-11T06:18:44;6.37;;;2.50;;
4563;SDS011;2294;51.818;8.484;2022-11-11T06:21:10;4.20;;;2.50;;
4563;SDS011;2294;51.818;8.484;2022-11-11T06:23:38;4.80;;;2.10;;
4563;SDS011;2294;51.818;8.484;2022-11-11T06:26:05;4.90;;;2.50;;
4563;SDS011;2294;51.818;8.484;2022-11-11T06:28:41;4.53;;;2.80;;
4563;SDS011;2294;51.818;8.484;2022-11-11T06:31:11;4.80;;;2.77;;
4563;SDS011;2294;51.818;8.484;2022-11-11T06:33:40;9.70;;;3.10;;
4563;SDS011;2294;51.818;8.484;2022-11-11T06:36:08;3.10;;;2.37;;
4563;SDS011;2294;51.818;8.484;2022-11-11T06:38:37;5.93;;;2.70;;
4563;SDS011;2294;51.818;8.484;2022-11-11T06:41:04;6.77;;;2.87;;
4563;SDS011;2294;51.818;8.484;2022-11-11T06:43:31;4.33;;;2.90;;
4563;SDS011;2294;51.818;8.484;2022-11-11T06:45:58;6.83;;;2.87;;
4563;SDS011;2294;51.818;8.484;2022-11-11T06:48:27;3.80;;;2.47;;
4563;SDS011;2294;51.818;8.484;2022-11-11T06:50:54;4.23;;;2.40;;
4563;SDS011;2294;51.818;8.484;2022-11-11T06:53:26;4.80;;;2.43;;
4563;SDS011;2294;51.818;8.484;2022-11-11T06:55:54;2.60;;;1.87;;
4563;SDS011;2294;51.818;8.484;2022-11-11T06:58:21;3.00;;;2.70;;
4563;SDS011;2294;51.818;8.484;2022-11-11T07:00:49;6.80;;;2.30;;
4563;SDS011;2294;51.818;8.484;2022-11-11T07:03:17;9.10;;;2.30;;
4563;SDS011;2294;51.818;8.484;2022-11-11T07:05:46;4.13;;;2.67;;
4563;SDS011;2294;51.818;8.484;2022-11-11T07:08:14;3.20;;;2.57;;
4563;SDS011;2294;51.818;8.484;2022-11-11T07:10:44;8.00;;;1.93;;
4563;SDS011;2294;51.818;8.484;2022-11-11T07:13:11;4.00;;;2.30;;
4563;SDS011;2294;51.818;8.484;2022-11-11T07:15:39;4.07;;;2.77;;
4563;SDS011;2294;51.818;8.484;2022-11-11T07:18:06;3.03;;;2.33;;
4563;SDS011;2294;51.818;8.484;2022-11-11T07:20:34;4.67;;;3.23;;
4563;SDS011;2294;51.818;8.484;2022-11-11T07:23:02;7.97;;;3.50;;
4563;SDS011;2294;51.818;8.484;2022-11-11T07:25:29;5.03;;;2.50;;
4563;SDS011;2294;51.818;8.484;2022-11-11T07:27:56;3.03;;;2.47;;
4563;SDS011;2294;51.818;8.484;2022-11-11T07:30:23;3.77;;;2.83;;
4563;SDS011;2294;51.818;8.484;2022-11-11T07:32:51;3.13;;;1.90;;
4563;SDS011;2294;51.818;8.484;2022-11-11T07:35:18;4.10;;;2.43;;
4563;SDS011;2294;51.818;8.484;2022-11-11T07:37:46;4.90;;;2.80;;
4563;SDS011;2294;51.818;8.484;2022-11-11T07:40:15;8.57;;;2.63;;
4563;SDS011;2294;51.818;8.484;2022-11-11T07:42:43;5.60;;;3.03;;
4563;SDS011;2294;51.818;8.484;2022-11-11T07:45:11;3.10;;;2.63;;
4563;SDS011;2294;51.818;8.484;2022-11-11T07:47:38;3.53;;;2.37;;
4563;SDS011;2294;51.818;8.484;2022-11-11T07:50:08;5.73;;;3.27;;
4563;SDS011;2294;51.818;8.484;2022-11-11T07:52:36;4.20;;;3.33;;
4563;SDS011;2294;51.818;8.484;2022-11-11T07:55:03;4.27;;;2.90;;
4563;SDS011;2294;51.818;8.484;2022-11-11T07:57:31;2.83;;;2.53;;
4563;SDS011;2294;51.818;8.484;2022-11-11T07:59:58;5.60;;;2.80;;
4563;SDS011;2294;51.818;8.484;2022-11-11T08:02:25;9.23;;;2.90;;
4563;SDS011;2294;51.818;8.484;2022-11-11T08:04:52;5.73;;;3.37;;
4563;SDS011;2294;51.818;8.484;2022-11-11T08:07:19;9.23;;;2.60;;
4563;SDS011;2294;51.818;8.484;2022-11-11T08:09:46;6.90;;;2.67;;
4563;SDS011;2294;51.818;8.484;2022-11-11T08:12:13;8.47;;;3.13;;
4563;SDS011;2294;51.818;8.484;2022-11-11T08:14:59;5.87;;;2.90;;
4563;SDS011;2294;51.818;8.484;2022-11-11T08:17:26;7.00;;;2.93;;
4563;SDS011;2294;51.818;8.484;2022-11-11T08:19:53;6.60;;;3.03;;
4563;SDS011;2294;51.818;8.484;2022-11-11T08:22:19;4.20;;;2.57;;
4563;SDS011;2294;51.818;8.484;2022-11-11T08:24:46;4.23;;;2.40;;
4563;SDS011;2294;51.818;8.484;2022-11-11T08:27:13;5.13;;;2.80;;
4563;SDS011;2294;51.818;8.484;2022-11-11T08:29:40;14.23;;;2.97;;
4563;SDS011;2294;51.818;8.484;2022-11-11T08:32:08;3.83;;;3.00;;
4563;SDS011;2294;51.818;8.484;2022-11-11T08:34:35;5.90;;;2.60;;
4563;SDS011;2294;51.818;8.484;2022-11-11T08:37:02;5.87;;;3.10;;
4563;SDS011;2294;51.818;8.484;2022-11-11T08:39:29;2.80;;;2.10;;
4563;SDS011;2294;51.818;8.484;2022-11-11T08:41:56;2.43;;;2.20;;
4563;SDS011;2294;51.818;8.484;2022-11-11T08:44:22;3.30;;;2.17;;
4563;SDS011;2294;51.818;8.484;2022-11-11T08:46:49;3.90;;;2.50;;
4563;SDS011;2294;51.818;8.484;2022-11-11T08:49:18;4.57;;;2.37;;
4563;SDS011;2294;51.818;8.484;2022-11-11T08:51:44;6.23;;;2.70;;
4563;SDS011;2294;51.818;8.484;2022-11-11T08:54:11;4.17;;;2.70;;
4563;SDS011;2294;51.818;8.484;2022-11-11T08:56:38;6.47;;;2.77;;
4563;SDS011;2294;51.818;8.484;2022-11-11T08:59:05;7.10;;;2.60;;
4563;SDS011;2294;51.818;8.484;2022-11-11T09:01:33;9.23;;;3.03;;
4563;SDS011;2294;51.818;8.484;2022-11-11T09:04:00;5.07;;;2.20;;
4563;SDS011;2294;51.818;8.484;2022-11-11T09:06:29;7.00;;;3.00;;
4563;SDS011;2294;51.818;8.484;2022-11-11T09:08:56;2.90;;;2.60;;
4563;SDS011;2294;51.818;8.484;2022-11-11T09:11:22;4.53;;;2.63;;
4563;SDS011;2294;51.818;8.484;2022-11-11T09:13:49;5.23;;;2.40;;
4563;SDS011;2294;51.818;8.484;2022-11-11T09:16:16;6.93;;;2.67;;
4563;SDS011;2294;51.818;8.484;2022-11-11T09:18:43;3.60;;;2.20;;
4563;SDS011;2294;51.818;8.484;2022-11-11T09:21:11;3.70;;;2.43;;
4563;SDS011;2294;51.818;8.484;2022-11-11T09:23:40;12.07;;;3.70;;
4563;SDS011;2294;51.818;8.484;2022-11-11T09:26:06;5.17;;;2.70;;
4563;SDS011;2294;51.818;8.484;2022-11-11T09:28:33;5.60;;;2.60;;
4563;SDS011;2294;51.818;8.484;2022-11-11T09:31:00;5.00;;;2.27;;
4563;SDS011;2294;51.818;8.484;2022-11-11T09:33:28;3.10;;;2.13;;
4563;SDS011;2294;51.818;8.484;2022-11-11T09:35:56;5.03;;;1.87;;
4563;SDS011;2294;51.818;8.484;2022-11-11T09:38:23;8.60;;;1.70;;
4563;SDS011;2294;51.818;8.484;2022-11-11T09:40:53;6.00;;;3.23;;
4563;SDS011;2294;51.818;8.484;2022-11-11T09:43:29;6.90;;;2.70;;
4563;SDS011;2294;51.818;8.484;2022-11-11T09:46:06;6.33;;;2.23;;
4563;SDS011;2294;51.818;8.484;2022-11-11T09:48:45;2.70;;;1.80;;
4563;SDS011;2294;51.818;8.484;2022-11-11T09:51:22;15.23;;;2.13;;
4563;SDS011;2294;51.818;8.484;2022-11-11T09:53:55;3.30;;;2.00;;
4563;SDS011;2294;51.818;8.484;2022-11-11T09:56:29;4.50;;;2.50;;
4563;SDS011;2294;51.818;8.484;2022-11-11T09:58:59;2.83;;;1.83;;
4563;SDS011;2294;51.818;8.484;2022-11-11T10:01:31;4.27;;;2.20;;
4563;SDS011;2294;51.818;8.484;2022-11-11T10:04:04;6.60;;;2.43;;
4563;SDS011;2294;51.818;8.484;2022-11-11T10:06:37;5.00;;;2.13;;
4563;SDS011;2294;51.818;8.484;2022-11-11T10:09:05;6.70;;;1.87;;
4563;SDS011;2294;51.818;8.484;2022-11-11T10:11:42;3.80;;;2.20;;
4563;SDS011;2294;51.818;8.484;2022-11-11T10:14:18;2.57;;;1.60;;
4563;SDS011;2294;51.818;8.484;2022-11-11T10:16:46;1.50;;;1.40;;
4563;SDS011;2294;51.818;8.484;2022-11-11T10:19:23;10.87;;;1.90;;
4563;SDS011;2294;51.818;8.484;2022-11-11T10:21:56;4.33;;;2.10;;
4563;SDS011;2294;51.818;8.484;2022-11-11T10:24:27;10.10;;;2.23;;
4563;SDS011;2294;51.818;8.484;2022-11-11T10:26:58;8.30;;;1.60;;
4563;SDS011;2294;51.818;8.484;2022-11-11T10:29:43;3.13;;;1.90;;
4563;SDS011;2294;51.818;8.484;2022-11-11T10:32:11;3.10;;;1.40;;
4563;SDS011;2294;51.818;8.484;2022-11-11T10:34:42;8.07;;;3.60;;
4563;SDS011;2294;51.818;8.484;2022-11-11T10:37:17;3.53;;;1.77;;
4563;SDS011;2294;51.818;8.484;2022-11-11T10:39:47;2.53;;;1.50;;
4563;SDS011;2294;51.818;8.484;2022-11-11T10:42:26;3.17;;;1.33;;
4563;SDS011;2294;51.818;8.484;2022-11-11T10:44:53;2.17;;;1.53;;
4563;SDS011;2294;51.818;8.484;2022-11-11T10:47:28;2.23;;;1.43;;
4563;SDS011;2294;51.818;8.484;2022-11-11T10:50:08;9.03;;;1.83;;
4563;SDS011;2294;51.818;8.484;2022-11-11T10:52:42;3.60;;;1.50;;
4563;SDS011;2294;51.818;8.484;2022-11-11T10:55:13;6.93;;;1.33;;
4563;SDS011;2294;51.818;8.484;2022-11-11T10:57:47;5.77;;;2.10;;
4563;SDS011;2294;51.818;8.484;2022-11-11T11:00:18;2.73;;;1.20;;
4563;SDS011;2294;51.818;8.484;2022-11-11T11:02:47;3.10;;;1.40;;
4563;SDS011;2294;51.818;8.484;2022-11-11T11:05:24;2.13;;;1.60;;
4563;SDS011;2294;51.818;8.484;2022-11-11T11:07:56;1.37;;;1.10;;
4563;SDS011;2294;51.818;8.484;2022-11-11T11:10:28;1.53;;;0.93;;
4563;SDS011;2294;51.818;8.484;2022-11-11T11:13:02;2.70;;;1.10;;
4563;SDS011;2294;51.818;8.484;2022-11-11T11:15:32;2.53;;;1.00;;
4563;SDS011;2294;51.818;8.484;2022-11-11T11:18:05;1.60;;;1.23;;
4563;SDS011;2294;51.818;8.484;2022-11-11T11:20:36;1.23;;;1.10;;
4563;SDS011;2294;51.818;8.484;2022-11-11T11:23:03;5.63;;;1.13;;
4563;SDS011;2294;51.818;8.484;2022-11-11T11:25:30;4.60;;;1.13;;
4563;SDS011;2294;51.818;8.484;2022-11-11T11:28:07;3.07;;;1.43;;
4563;SDS011;2294;51.818;8.484;2022-11-11T11:30:34;1.97;;;0.93;;
4563;SDS011;2294;51.818;8.484;2022-11-11T11:33:02;2.30;;;1.10;;
4563;SDS011;2294;51.818;8.484;2022-11-11T11:35:32;1.60;;;1.10;;
4563;SDS011;2294;51.818;8.484;2022-11-11T11:38:00;1.83;;;1.20;;
4563;SDS011;2294;51.818;8.484;2022-11-11T11:40:34;9.57;;;1.70;;
4563;SDS011;2294;51.818;8.484;2022-11-11T11:43:25;1.20;;;1.00;;
4563;SDS011;2294;51.818;8.484;2022-11-11T11:45:58;1.40;;;0.70;;
4563;SDS011;2294;51.818;8.484;2022-11-11T11:48:30;1.10;;;0.80;;
4563;SDS011;2294;51.818;8.484;2022-11-11T11:51:08;1.73;;;1.20;;
4563;SDS011;2294;51.818;8.484;2022-11-11T11:53:48;1.67;;;0.90;;
4563;SDS011;2294;51.818;8.484;2022-11-11T11:56:28;0.93;;;0.83;;
4563;SDS011;2294;51.818;8.484;2022-11-11T11:59:04;1.57;;;1.00;;
4563;SDS011;2294;51.818;8.484;2022-11-11T12:01:38;1.33;;;1.10;;
4563;SDS011;2294;51.818;8.484;2022-11-11T12:07:34;1.87;;;1.00;;
4563;SDS011;2294;51.818;8.484;2022-11-11T12:10:19;1.50;;;1.00;;
4563;SDS011;2294;51.818;8.484;2022-11-11T12:12:55;1.23;;;0.90;;
4563;SDS011;2294;51.818;8.484;2022-11-11T12:15:29;3.53;;;0.83;;
4563;SDS011;2294;51.818;8.484;2022-11-11T12:18:07;6.93;;;1.10;;
4563;SDS011;2294;51.818;8.484;2022-11-11T12:20:48;2.03;;;0.70;;
4563;SDS011;2294;51.818;8.484;2022-11-11T12:26:23;3.90;;;1.03;;
4563;SDS011;2294;51.818;8.484;2022-11-11T12:29:13;2.10;;;0.90;;
4563;SDS011;2294;51.818;8.484;2022-11-11T12:31:59;1.00;;;0.90;;
4563;SDS011;2294;51.818;8.484;2022-11-11T12:34:47;1.40;;;0.80;;
4563;SDS011;2294;51.818;8.484;2022-11-11T12:37:32;1.23;;;0.80;;
4563;SDS011;2294;51.818;8.484;2022-11-11T12:40:13;1.50;;;0.93;;
4563;SDS011;2294;51.818;8.484;2022-11-11T12:42:50;0.83;;;0.70;;
4563;SDS011;2294;51.818;8.484;2022-11-11T12:45:30;1.20;;;0.93;;
4563;SDS011;2294;51.818;8.484;2022-11-11T12:48:04;4.10;;;1.73;;
4563;SDS011;2294;51.818;8.484;2022-11-11T12:50:37;2.23;;;0.80;;
4563;SDS011;2294;51.818;8.484;2022-11-11T12:53:11;5.43;;;1.60;;
4563;SDS011;2294;51.818;8.484;2022-11-11T12:55:49;1.03;;;0.87;;
4563;SDS011;2294;51.818;8.484;2022-11-11T12:58:23;1.40;;;0.70;;
4563;SDS011;2294;51.818;8.484;2022-11-11T13:01:00;3.10;;;1.00;;
4563;SDS011;2294;51.818;8.484;2022-11-11T13:03:46;1.53;;;0.80;;
4563;SDS011;2294;51.818;8.484;2022-11-11T13:06:28;7.57;;;1.30;;
4563;SDS011;2294;51.818;8.484;2022-11-11T13:09:13;0.90;;;0.60;;
4563;SDS011;2294;51.818;8.484;2022-11-11T13:12:00;1.20;;;0.70;;
4563;SDS011;2294;51.818;8.484;2022-11-11T13:14:34;1.70;;;0.70;;
4563;SDS011;2294;51.818;8.484;2022-11-11T13:17:09;1.10;;;0.70;;
4563;SDS011;2294;51.818;8.484;2022-11-11T13:19:40;2.73;;;0.90;;
4563;SDS011;2294;51.818;8.484;2022-11-11T13:22:13;1.20;;;0.97;;
4563;SDS011;2294;51.818;8.484;2022-11-11T13:24:47;3.70;;;1.10;;
4563;SDS011;2294;51.818;8.484;2022-11-11T13:27:15;1.20;;;0.70;;
4563;SDS011;2294;51.818;8.484;2022-11-11T13:30:00;1.00;;;0.83;;
4563;SDS011;2294;51.818;8.484;2022-11-11T13:32:47;3.43;;;0.70;;
4563;SDS011;2294;51.818;8.484;2022-11-11T13:35:20;1.67;;;0.90;;
4563;SDS011;2294;51.818;8.484;2022-11-11T13:37:50;3.17;;;1.07;;
4563;SDS011;2294;51.818;8.484;2022-11-11T13:40:31;2.47;;;1.10;;
4563;SDS011;2294;51.818;8.484;2022-11-11T13:43:00;1.67;;;1.00;;
4563;SDS011;2294;51.818;8.484;2022-11-11T13:45:31;3.10;;;1.20;;
4563;SDS011;2294;51.818;8.484;2022-11-11T13:48:00;1.20;;;0.83;;
4563;SDS011;2294;51.818;8.484;2022-11-11T13:50:31;1.87;;;0.80;;
4563;SDS011;2294;51.818;8.484;2022-11-11T13:53:01;2.20;;;0.80;;
4563;SDS011;2294;51.818;8.484;2022-11-11T13:55:30;1.10;;;0.83;;
4563;SDS011;2294;51.818;8.484;2022-11-11T13:58:01;1.30;;;0.90;;
4563;SDS011;2294;51.818;8.484;2022-11-11T14:00:30;2.50;;;1.37;;
4563;SDS011;2294;51.818;8.484;2022-11-11T14:08:56;2.30;;;1.10;;
4563;SDS011;2294;51.818;8.484;2022-11-11T14:11:28;1.57;;;0.90;;
4563;SDS011;2294;51.818;8.484;2022-11-11T14:13:57;3.87;;;1.30;;
4563;SDS011;2294;51.818;8.484;2022-11-11T14:17:02;1.43;;;1.17;;
4563;SDS011;2294;51.818;8.484;2022-11-11T14:19:30;2.20;;;1.43;;
4563;SDS011;2294;51.818;8.484;2022-11-11T14:21:58;4.93;;;2.27;;
4563;SDS011;2294;51.818;8.484;2022-11-11T14:24:33;4.20;;;2.00;;
4563;SDS011;2294;51.818;8.484;2022-11-11T14:27:02;13.13;;;2.40;;
4563;SDS011;2294;51.818;8.484;2022-11-11T14:29:46;11.40;;;2.90;;
4563;SDS011;2294;51.818;8.484;2022-11-11T14:32:20;2.40;;;2.13;;
4563;SDS011;2294;51.818;8.484;2022-11-11T14:35:00;4.07;;;1.83;;
4563;SDS011;2294;51.818;8.484;2022-11-11T14:37:41;5.80;;;2.40;;
4563;SDS011;2294;51.818;8.484;2022-11-11T14:40:23;3.53;;;1.67;;
4563;SDS011;2294;51.818;8.484;2022-11-11T14:42:51;4.67;;;1.23;;
4563;SDS011;2294;51.818;8.484;2022-11-11T14:51:39;1.20;;;1.07;;
4563;SDS011;2294;51.818;8.484;2022-11-11T14:57:27;1.30;;;0.90;;
4563;SDS011;2294;51.818;8.484;2022-11-11T14:59:57;1.57;;;0.83;;
4563;SDS011;2294;51.818;8.484;2022-11-11T15:02:26;2.03;;;1.00;;
4563;SDS011;2294;51.818;8.484;2022-11-11T15:05:00;2.10;;;1.20;;
4563;SDS011;2294;51.818;8.484;2022-11-11T15:07:33;2.20;;;1.57;;
4563;SDS011;2294;51.818;8.484;2022-11-11T15:10:19;3.40;;;1.53;;
4563;SDS011;2294;51.818;8.484;2022-11-11T15:16:22;4.03;;;1.10;;
4563;SDS011;2294;51.818;8.484;2022-11-11T15:19:01;3.47;;;1.33;;
4563;SDS011;2294;51.818;8.484;2022-11-11T15:21:45;11.80;;;1.40;;
4563;SDS011;2294;51.818;8.484;2022-11-11T15:24:23;4.20;;;1.10;;
4563;SDS011;2294;51.818;8.484;2022-11-11T15:26:59;1.67;;;1.10;;
4563;SDS011;2294;51.818;8.484;2022-11-11T15:29:41;3.87;;;1.60;;
4563;SDS011;2294;51.818;8.484;2022-11-11T15:32:17;1.60;;;1.23;;
4563;SDS011;2294;51.818;8.484;2022-11-11T15:34:52;4.83;;;1.93;;
4563;SDS011;2294;51.818;8.484;2022-11-11T15:37:24;3.67;;;1.27;;
4563;SDS011;2294;51.818;8.484;2022-11-11T15:39:53;1.90;;;1.40;;
4563;SDS011;2294;51.818;8.484;2022-11-11T15:42:23;7.00;;;2.00;;
4563;SDS011;2294;51.818;8.484;2022-11-11T15:44:55;2.97;;;1.80;;
4563;SDS011;2294;51.818;8.484;2022-11-11T15:47:23;3.77;;;1.70;;
4563;SDS011;2294;51.818;8.484;2022-11-11T15:49:51;5.70;;;2.60;;
4563;SDS011;2294;51.818;8.484;2022-11-11T15:52:26;4.80;;;2.93;;
4563;SDS011;2294;51.818;8.484;2022-11-11T15:54:55;6.00;;;2.70;;
4563;SDS011;2294;51.818;8.484;2022-11-11T15:57:23;5.17;;;3.23;;
4563;SDS011;2294;51.818;8.484;2022-11-11T15:59:52;6.23;;;3.13;;
4563;SDS011;2294;51.818;8.484;2022-11-11T16:02:20;3.87;;;2.07;;
4563;SDS011;2294;51.818;8.484;2022-11-11T16:04:51;6.13;;;3.10;;
4563;SDS011;2294;51.818;8.484;2022-11-11T16:07:22;9.63;;;3.03;;
4563;SDS011;2294;51.818;8.484;2022-11-11T16:09:52;5.47;;;2.50;;
4563;SDS011;2294;51.818;8.484;2022-11-11T16:12:25;4.27;;;2.27;;